createdAt,value
2023-02-26T00:01:51.560Z,7.56
2023-02-26T00:04:20.742Z,7.50
2023-02-26T00:06:56.905Z,7.46
2023-02-26T00:09:27.927Z,7.42
2023-02-26T00:11:57.227Z,7.40
2023-02-26T00:14:31.852Z,7.36
2023-02-26T00:17:35.367Z,7.32
2023-02-26T00:20:12.148Z,7.26
2023-02-26T00:22:42.564Z,7.23
2023-02-26T00:25:11.337Z,7.19
2023-02-26T00:27:40.847Z,7.16
2023-02-26T00:30:10.481Z,7.14
2023-02-26T00:32:40.256Z,7.09
2023-02-26T00:35:11.797Z,7.04
2023-02-26T00:37:56.280Z,7.01
2023-02-26T00:40:46.086Z,6.98
2023-02-26T00:43:24.344Z,6.92
2023-02-26T00:46:25.994Z,6.88
2023-02-26T00:49:11.045Z,6.85
2023-02-26T00:51:50.839Z,6.81
2023-02-26T00:54:26.496Z,6.76
2023-02-26T00:56:56.343Z,6.71
2023-02-26T00:59:25.516Z,6.69
2023-02-26T01:01:54.395Z,6.64
2023-02-26T01:04:24.424Z,6.59
2023-02-26T01:06:55.720Z,6.54
2023-02-26T01:09:28.757Z,6.49
2023-02-26T01:12:01.771Z,6.45
2023-02-26T01:14:32.596Z,6.44
2023-02-26T01:17:40.081Z,6.43
2023-02-26T01:20:10.493Z,6.43
2023-02-26T01:23:02.141Z,6.41
2023-02-26T01:25:39.806Z,6.39
2023-02-26T01:28:09.203Z,6.38
2023-02-26T01:30:39.647Z,6.40
2023-02-26T01:33:30.744Z,6.40
2023-02-26T01:36:23.024Z,6.43
2023-02-26T01:39:10.699Z,6.43
2023-02-26T01:41:58.958Z,6.40
2023-02-26T01:44:32.552Z,6.37
2023-02-26T01:47:01.865Z,6.35
2023-02-26T01:49:32.085Z,6.33
2023-02-26T01:52:02.710Z,6.32
2023-02-26T01:54:34.091Z,6.30
2023-02-26T01:57:08.770Z,6.33
2023-02-26T01:59:44.006Z,6.30
2023-02-26T02:02:13.785Z,6.27
2023-02-26T02:04:42.727Z,6.29
2023-02-26T02:07:11.716Z,6.30
2023-02-26T02:09:40.415Z,6.35
2023-02-26T02:12:31.162Z,6.37
2023-02-26T02:15:03.285Z,6.41
2023-02-26T02:17:58.078Z,6.42
2023-02-26T02:20:45.692Z,6.43
2023-02-26T02:23:23.107Z,6.44
2023-02-26T02:26:49.927Z,6.46
2023-02-26T02:29:42.078Z,6.48
2023-02-26T02:32:12.558Z,6.40
2023-02-26T02:34:58.823Z,6.36
2023-02-26T02:37:48.796Z,6.31
2023-02-26T02:40:30.217Z,6.22
2023-02-26T02:43:00.173Z,6.19
2023-02-26T02:45:48.289Z,6.17
2023-02-26T02:48:29.767Z,6.11
2023-02-26T02:51:19.188Z,6.08
2023-02-26T02:53:55.022Z,6.06
2023-02-26T02:56:26.309Z,6.04
2023-02-26T02:59:23.436Z,6.02
2023-02-26T03:02:21.553Z,6.01
2023-02-26T03:04:50.282Z,6.02
2023-02-26T03:07:19.084Z,6.07
2023-02-26T03:09:53.608Z,6.07
2023-02-26T03:12:22.587Z,6.15
2023-02-26T03:14:55.791Z,6.27
2023-02-26T03:17:52.216Z,6.40
2023-02-26T03:20:23.666Z,6.51
2023-02-26T03:22:56.168Z,6.62
2023-02-26T03:25:42.853Z,6.75
2023-02-26T03:28:27.750Z,6.81
2023-02-26T03:31:07.294Z,6.80
2023-02-26T03:33:50.992Z,6.71
2023-02-26T03:36:30.024Z,6.60
2023-02-26T03:39:12.626Z,6.64
2023-02-26T03:42:10.611Z,6.75
2023-02-26T03:44:54.968Z,6.87
2023-02-26T03:47:25.694Z,6.90
2023-02-26T03:49:59.576Z,6.91
2023-02-26T03:52:30.142Z,6.97
2023-02-26T03:55:28.003Z,7.04
2023-02-26T03:58:09.700Z,7.12
2023-02-26T04:01:18.967Z,7.18
2023-02-26T04:03:54.733Z,7.20
2023-02-26T04:06:25.113Z,7.26
2023-02-26T04:08:55.324Z,7.29
2023-02-26T04:11:26.063Z,7.24
2023-02-26T04:13:55.058Z,7.12
2023-02-26T04:16:25.093Z,7.05
2023-02-26T04:18:56.108Z,7.02
2023-02-26T04:21:25.067Z,7.08
2023-02-26T04:23:54.336Z,7.14
2023-02-26T04:26:23.702Z,7.15
2023-02-26T04:28:53.200Z,7.17
2023-02-26T04:31:22.419Z,7.22
2023-02-26T04:33:51.800Z,7.23
2023-02-26T04:36:20.394Z,7.24
2023-02-26T04:38:49.997Z,7.27
2023-02-26T04:41:18.774Z,7.34
2023-02-26T04:43:49.098Z,7.36
2023-02-26T04:46:24.698Z,7.38
2023-02-26T04:48:54.010Z,7.37
2023-02-26T04:51:26.463Z,7.41
2023-02-26T04:53:55.721Z,7.43
2023-02-26T04:56:25.967Z,7.44
2023-02-26T04:58:56.160Z,7.48
2023-02-26T05:01:28.768Z,7.52
2023-02-26T05:03:58.036Z,7.53
2023-02-26T05:06:27.304Z,7.54
2023-02-26T05:08:57.154Z,7.49
2023-02-26T05:11:26.129Z,7.38
2023-02-26T05:13:55.757Z,7.41
2023-02-26T05:16:24.833Z,7.46
2023-02-26T05:18:54.965Z,7.49
2023-02-26T05:21:26.135Z,7.47
2023-02-26T05:23:55.515Z,7.37
2023-02-26T05:26:24.775Z,7.27
2023-02-26T05:28:56.989Z,7.19
2023-02-26T05:31:27.289Z,7.17
2023-02-26T05:33:56.714Z,7.21
2023-02-26T05:36:25.826Z,7.31
2023-02-26T05:38:54.803Z,7.36
2023-02-26T05:41:23.794Z,7.38
2023-02-26T05:43:52.541Z,7.40
2023-02-26T05:46:21.715Z,7.50
2023-02-26T05:48:52.115Z,7.56
2023-02-26T05:51:21.704Z,7.60
2023-02-26T05:53:50.401Z,7.63
2023-02-26T05:56:19.282Z,7.52
2023-02-26T05:58:48.448Z,7.33
2023-02-26T06:01:17.872Z,7.13
2023-02-26T06:03:46.766Z,6.98
2023-02-26T06:06:18.854Z,6.93
2023-02-26T06:08:48.333Z,6.88
2023-02-26T06:11:20.712Z,6.79
2023-02-26T06:13:49.887Z,6.73
2023-02-26T06:16:20.805Z,6.72
2023-02-26T06:18:51.570Z,6.68
2023-02-26T06:21:20.776Z,6.70
2023-02-26T06:23:49.614Z,6.82
2023-02-26T06:26:18.547Z,6.97
2023-02-26T06:28:48.878Z,7.04
2023-02-26T06:31:18.384Z,7.11
2023-02-26T06:33:48.098Z,7.22
2023-02-26T06:36:17.830Z,7.34
2023-02-26T06:38:47.219Z,7.45
2023-02-26T06:41:16.094Z,7.51
2023-02-26T06:43:44.991Z,7.56
2023-02-26T06:46:14.152Z,7.61
2023-02-26T06:48:45.225Z,7.60
2023-02-26T06:51:14.012Z,7.56
2023-02-26T06:53:42.902Z,7.48
2023-02-26T06:56:11.781Z,7.39
2023-02-26T06:58:40.691Z,7.30
2023-02-26T07:01:10.844Z,7.25
2023-02-26T07:03:39.630Z,7.15
2023-02-26T07:06:38.459Z,7.07
2023-02-26T07:08:59.848Z,7.05
2023-02-26T07:11:29.712Z,7.01
2023-02-26T07:13:58.494Z,7.03
2023-02-26T07:16:27.958Z,7.07
2023-02-26T07:18:57.353Z,7.07
2023-02-26T07:21:26.298Z,7.10
2023-02-26T07:24:01.743Z,7.19
2023-02-26T07:26:30.853Z,7.29
2023-02-26T07:29:00.034Z,7.32
2023-02-26T07:31:29.362Z,7.37
2023-02-26T07:33:58.221Z,7.41
2023-02-26T07:36:27.424Z,7.47
2023-02-26T07:38:56.722Z,7.47
2023-02-26T07:41:26.731Z,7.42
2023-02-26T07:43:56.029Z,7.31
2023-02-26T07:46:25.057Z,7.15
2023-02-26T07:48:54.216Z,7.04
2023-02-26T07:51:24.446Z,7.03
2023-02-26T07:53:57.629Z,7.01
2023-02-26T07:56:30.617Z,6.98
2023-02-26T07:58:59.672Z,6.94
2023-02-26T08:01:28.961Z,6.84
2023-02-26T08:03:57.830Z,6.82
2023-02-26T08:06:28.034Z,6.79
2023-02-26T08:09:01.926Z,6.78
2023-02-26T08:11:33.103Z,6.81
2023-02-26T08:14:02.065Z,6.80
2023-02-26T08:16:31.179Z,6.80
2023-02-26T08:19:00.070Z,6.85
2023-02-26T08:21:29.352Z,6.97
2023-02-26T08:23:58.449Z,7.12
2023-02-26T08:26:27.496Z,7.24
2023-02-26T08:28:56.665Z,7.28
2023-02-26T08:31:27.424Z,7.26
2023-02-26T08:33:56.151Z,7.22
2023-02-26T08:36:25.587Z,7.11
2023-02-26T08:38:55.270Z,6.97
2023-02-26T08:41:24.759Z,6.89
2023-02-26T08:43:55.193Z,6.83
2023-02-26T08:46:24.391Z,6.80
2023-02-26T08:48:54.000Z,6.79
2023-02-26T08:51:23.382Z,6.78
2023-02-26T08:53:52.606Z,6.74
2023-02-26T08:56:21.380Z,6.71
2023-02-26T08:58:50.490Z,6.69
2023-02-26T09:01:19.174Z,6.66
2023-02-26T09:03:48.271Z,6.64
2023-02-26T09:06:16.954Z,6.64
2023-02-26T09:08:48.000Z,6.66
2023-02-26T09:11:18.015Z,6.67
2023-02-26T09:13:46.511Z,6.69
2023-02-26T09:16:14.944Z,6.75
2023-02-26T09:18:47.138Z,6.79
2023-02-26T09:21:15.677Z,6.85
2023-02-26T09:23:45.545Z,6.95
2023-02-26T09:26:14.522Z,7.07
2023-02-26T09:28:43.173Z,7.25
2023-02-26T09:31:12.502Z,7.32
2023-02-26T09:33:41.809Z,7.39
2023-02-26T09:36:10.098Z,7.43
2023-02-26T09:38:39.000Z,7.45
2023-02-26T09:41:29.080Z,7.51
2023-02-26T09:43:57.963Z,7.65
2023-02-26T09:46:32.907Z,7.72
2023-02-26T09:49:29.172Z,7.74
2023-02-26T09:52:31.809Z,7.74
2023-02-26T09:55:10.826Z,7.82
2023-02-26T09:57:45.348Z,7.85
2023-02-26T10:00:18.144Z,7.87
2023-02-26T10:03:10.171Z,7.88
2023-02-26T10:05:57.590Z,7.88
2023-02-26T10:08:33.650Z,7.93
2023-02-26T10:11:15.161Z,8.01
2023-02-26T10:13:57.197Z,7.99
2023-02-26T10:16:28.060Z,8.01
2023-02-26T10:19:18.814Z,7.92
2023-02-26T10:21:53.093Z,7.87
2023-02-26T10:24:39.543Z,7.89
2023-02-26T10:27:41.162Z,7.88
2023-02-26T10:30:29.039Z,7.71
2023-02-26T10:33:28.054Z,7.58
2023-02-26T10:36:01.275Z,7.53
2023-02-26T10:38:31.398Z,7.51
2023-02-26T10:41:08.525Z,7.50
2023-02-26T10:43:42.978Z,7.54
2023-02-26T10:46:45.852Z,7.58
2023-02-26T10:49:33.610Z,7.54
2023-02-26T10:52:31.889Z,7.40
2023-02-26T10:55:14.417Z,7.37
2023-02-26T10:57:48.101Z,7.38
2023-02-26T11:00:19.286Z,7.39
2023-02-26T11:02:52.215Z,7.44
2023-02-26T11:05:30.762Z,7.47
2023-02-26T11:08:06.125Z,7.48
2023-02-26T11:10:48.907Z,7.51
2023-02-26T11:13:18.312Z,7.51
2023-02-26T11:15:49.729Z,7.51
2023-02-26T11:18:42.635Z,7.50
2023-02-26T11:21:17.779Z,7.51
2023-02-26T11:23:47.671Z,7.54
2023-02-26T11:26:17.999Z,7.59
2023-02-26T11:28:48.570Z,7.61
2023-02-26T11:31:21.339Z,7.61
2023-02-26T11:33:52.136Z,7.63
2023-02-26T11:36:22.263Z,7.69
2023-02-26T11:39:03.128Z,7.77
2023-02-26T11:41:33.141Z,7.84
2023-02-26T11:44:05.530Z,7.78
2023-02-26T11:46:51.195Z,7.79
2023-02-26T11:49:23.404Z,7.82
2023-02-26T11:52:06.179Z,7.83
2023-02-26T11:54:36.611Z,7.75
2023-02-26T11:57:08.489Z,7.62
2023-02-26T11:59:38.602Z,7.51
2023-02-26T12:02:13.218Z,7.48
2023-02-26T12:04:45.241Z,7.42
2023-02-26T12:07:14.801Z,7.30
2023-02-26T12:09:44.072Z,7.20
2023-02-26T12:12:21.949Z,7.14
2023-02-26T12:15:03.705Z,7.10
2023-02-26T12:17:51.410Z,7.07
2023-02-26T12:20:28.986Z,7.07
2023-02-26T12:22:59.121Z,7.18
2023-02-26T12:25:32.830Z,7.25
2023-02-26T12:28:26.292Z,7.21
2023-02-26T12:30:55.400Z,7.17
2023-02-26T12:33:38.918Z,7.13
2023-02-26T12:36:23.569Z,7.20
2023-02-26T12:39:26.051Z,7.36
2023-02-26T12:42:19.924Z,7.55
2023-02-26T12:45:20.968Z,7.71
2023-02-26T12:48:10.544Z,7.82
2023-02-26T12:50:56.026Z,7.92
2023-02-26T12:53:43.040Z,7.96
2023-02-26T12:56:49.646Z,7.96
2023-02-26T12:59:42.082Z,8.02
2023-02-26T13:02:34.094Z,8.05
2023-02-26T13:05:15.382Z,8.11
2023-02-26T13:07:50.107Z,8.14
2023-02-26T13:10:28.523Z,8.20
2023-02-26T13:13:22.489Z,8.22
2023-02-26T13:16:16.406Z,8.27
2023-02-26T13:18:54.677Z,8.30
2023-02-26T13:21:26.998Z,8.15
2023-02-26T13:24:01.159Z,8.01
2023-02-26T13:26:31.689Z,7.93
2023-02-26T13:29:18.884Z,7.93
2023-02-26T13:31:56.023Z,7.99
2023-02-26T13:34:48.653Z,8.05
2023-02-26T13:37:23.342Z,8.14
2023-02-26T13:39:57.382Z,8.18
2023-02-26T13:42:59.040Z,8.20
2023-02-26T13:45:51.135Z,8.24
2023-02-26T13:48:46.169Z,8.25
2023-02-26T13:51:26.367Z,8.25
2023-02-26T13:54:00.107Z,8.25
2023-02-26T13:56:29.020Z,8.31
2023-02-26T13:59:13.536Z,8.31
2023-02-26T14:01:46.822Z,8.32
2023-02-26T14:04:25.441Z,8.29
2023-02-26T14:06:58.434Z,8.27
2023-02-26T14:09:36.068Z,8.17
2023-02-26T14:12:16.123Z,8.13
2023-02-26T14:15:12.046Z,8.11
2023-02-26T14:17:51.581Z,8.10
2023-02-26T14:20:28.470Z,8.16
2023-02-26T14:23:12.521Z,8.17
2023-02-26T14:25:47.942Z,8.17
2023-02-26T14:28:33.321Z,8.14
2023-02-26T14:31:17.011Z,8.11
2023-02-26T14:34:04.814Z,8.06
2023-02-26T14:36:44.741Z,8.02
2023-02-26T14:39:36.981Z,7.97
2023-02-26T14:42:18.778Z,7.89
2023-02-26T14:44:49.634Z,7.86
2023-02-26T14:47:18.707Z,7.85
2023-02-26T14:49:49.807Z,7.81
2023-02-26T14:52:32.771Z,7.74
2023-02-26T14:55:24.099Z,7.70
2023-02-26T14:58:09.560Z,7.64
2023-02-26T15:00:51.158Z,7.58
2023-02-26T15:03:40.325Z,7.51
2023-02-26T15:06:31.120Z,7.45
2023-02-26T15:09:10.350Z,7.41
2023-02-26T15:11:58.771Z,7.40
2023-02-26T15:14:36.109Z,7.39
2023-02-26T15:17:15.653Z,7.37
2023-02-26T15:19:59.994Z,7.41
2023-02-26T15:22:37.481Z,7.44
2023-02-26T15:25:12.392Z,7.47
2023-02-26T15:27:41.295Z,7.44
2023-02-26T15:30:14.952Z,7.36
2023-02-26T15:32:44.317Z,7.25
2023-02-26T15:35:17.569Z,7.27
2023-02-26T15:37:51.719Z,7.30
2023-02-26T15:40:22.848Z,7.34
2023-02-26T15:42:56.258Z,7.34
2023-02-26T15:45:37.729Z,7.33
2023-02-26T15:48:16.922Z,7.36
2023-02-26T15:50:47.595Z,7.42
2023-02-26T15:53:19.732Z,7.45
2023-02-26T15:55:52.131Z,7.42
2023-02-26T15:58:29.834Z,7.35
2023-02-26T16:01:02.989Z,7.34
2023-02-26T16:03:35.771Z,7.30
2023-02-26T16:06:07.078Z,7.27
2023-02-26T16:08:39.625Z,7.26
2023-02-26T16:11:08.821Z,7.26
2023-02-26T16:13:39.045Z,7.26
2023-02-26T16:16:13.097Z,7.30
2023-02-26T16:18:42.794Z,7.34
2023-02-26T16:21:31.619Z,7.37
2023-02-26T16:24:00.821Z,7.37
2023-02-26T16:26:34.955Z,7.33
2023-02-26T16:29:07.708Z,7.30
2023-02-26T16:31:38.400Z,7.32
2023-02-26T16:34:32.012Z,7.30
2023-02-26T16:37:11.661Z,7.24
2023-02-26T16:39:44.427Z,7.20
2023-02-26T16:42:24.456Z,7.16
2023-02-26T16:45:02.210Z,7.13
2023-02-26T16:47:33.831Z,7.08
2023-02-26T16:50:03.232Z,7.01
2023-02-26T16:52:32.655Z,6.96
2023-02-26T16:55:04.523Z,6.95
2023-02-26T16:57:40.102Z,6.96
2023-02-26T17:00:30.005Z,6.92
2023-02-26T17:03:12.439Z,6.82
2023-02-26T17:05:51.461Z,6.81
2023-02-26T17:08:21.889Z,6.81
2023-02-26T17:11:00.504Z,6.80
2023-02-26T17:13:34.230Z,6.78
2023-02-26T17:16:04.528Z,6.78
2023-02-26T17:18:34.540Z,6.73
2023-02-26T17:21:07.228Z,6.69
2023-02-26T17:23:37.972Z,6.68
2023-02-26T17:26:07.257Z,6.69
2023-02-26T17:28:40.091Z,6.61
2023-02-26T17:31:09.953Z,6.52
2023-02-26T17:33:41.309Z,6.49
2023-02-26T17:36:14.926Z,6.49
2023-02-26T17:38:47.287Z,6.50
2023-02-26T17:41:19.448Z,6.51
2023-02-26T17:43:49.047Z,6.51
2023-02-26T17:46:17.844Z,6.51
2023-02-26T17:48:47.954Z,6.53
2023-02-26T17:51:17.677Z,6.52
2023-02-26T17:53:47.098Z,6.50
2023-02-26T17:56:21.713Z,6.50
2023-02-26T17:58:52.023Z,6.48
2023-02-26T18:01:21.577Z,6.49
2023-02-26T18:03:54.901Z,6.48
2023-02-26T18:06:24.953Z,6.45
2023-02-26T18:08:54.650Z,6.43
2023-02-26T18:11:26.316Z,6.38
2023-02-26T18:13:55.912Z,6.39
2023-02-26T18:16:33.642Z,6.37
2023-02-26T18:19:03.029Z,6.28
2023-02-26T18:21:33.464Z,6.22
2023-02-26T18:24:02.639Z,6.21
2023-02-26T18:26:32.607Z,6.21
2023-02-26T18:29:02.384Z,6.20
2023-02-26T18:31:35.642Z,6.18
2023-02-26T18:34:06.632Z,6.18
2023-02-26T18:36:38.303Z,6.16
2023-02-26T18:39:20.657Z,6.18
2023-02-26T18:41:51.081Z,6.18
2023-02-26T18:44:19.983Z,6.13
2023-02-26T18:46:49.319Z,6.10
2023-02-26T18:49:19.801Z,6.10
2023-02-26T18:51:48.914Z,6.09
2023-02-26T18:54:18.508Z,6.06
2023-02-26T18:56:47.605Z,6.06
2023-02-26T18:59:16.998Z,6.09
2023-02-26T19:01:48.392Z,6.11
2023-02-26T19:04:18.183Z,6.17
2023-02-26T19:06:50.977Z,6.17
2023-02-26T19:09:20.036Z,6.17
2023-02-26T19:11:49.034Z,6.20
2023-02-26T19:14:19.050Z,6.21
2023-02-26T19:16:48.453Z,6.24
2023-02-26T19:19:19.490Z,6.25
2023-02-26T19:21:48.992Z,6.23
2023-02-26T19:24:18.398Z,6.19
2023-02-26T19:26:47.318Z,6.13
2023-02-26T19:29:17.527Z,6.03
2023-02-26T19:31:46.937Z,5.96
2023-02-26T19:34:15.807Z,5.90
2023-02-26T19:36:48.560Z,5.85
2023-02-26T19:39:18.890Z,5.86
2023-02-26T19:41:49.569Z,5.86
2023-02-26T19:44:18.738Z,5.83
2023-02-26T19:46:48.546Z,5.77
2023-02-26T19:49:17.964Z,5.73
2023-02-26T19:51:46.965Z,5.72
2023-02-26T19:54:15.937Z,5.68
2023-02-26T19:56:44.826Z,5.64
2023-02-26T19:59:13.414Z,5.58
2023-02-26T20:01:44.062Z,5.57
2023-02-26T20:04:14.073Z,5.56
2023-02-26T20:06:44.078Z,5.55
2023-02-26T20:09:18.697Z,5.54
2023-02-26T20:11:47.695Z,5.50
2023-02-26T20:14:17.024Z,5.51
2023-02-26T20:16:47.226Z,5.54
2023-02-26T20:19:16.120Z,5.56
2023-02-26T20:21:47.045Z,5.53
2023-02-26T20:24:16.367Z,5.44
2023-02-26T20:26:45.866Z,5.37
2023-02-26T20:29:18.752Z,5.33
2023-02-26T20:31:50.261Z,5.35
2023-02-26T20:34:19.597Z,5.38
2023-02-26T20:36:51.025Z,5.40
2023-02-26T20:39:21.454Z,5.39
2023-02-26T20:41:51.186Z,5.37
2023-02-26T20:44:20.264Z,5.36
2023-02-26T20:46:49.692Z,5.36
2023-02-26T20:49:18.557Z,5.36
2023-02-26T20:51:50.732Z,5.34
2023-02-26T20:54:20.648Z,5.34
2023-02-26T20:56:50.675Z,5.32
2023-02-26T20:59:20.255Z,5.32
2023-02-26T21:01:54.169Z,5.34
2023-02-26T21:04:23.363Z,5.35
2023-02-26T21:06:52.351Z,5.34
2023-02-26T21:09:21.500Z,5.34
2023-02-26T21:11:52.631Z,5.29
2023-02-26T21:14:22.610Z,5.26
2023-02-26T21:16:54.262Z,5.24
2023-02-26T21:19:24.195Z,5.24
2023-02-26T21:21:53.277Z,5.28
2023-02-26T21:24:23.186Z,5.26
2023-02-26T21:26:53.202Z,5.23
2023-02-26T21:29:23.172Z,5.27
2023-02-26T21:31:54.007Z,5.35
2023-02-26T21:34:33.587Z,5.38
2023-02-26T21:37:03.932Z,5.39
2023-02-26T21:39:33.134Z,5.39
2023-02-26T21:42:04.078Z,5.37
2023-02-26T21:44:35.732Z,5.31
2023-02-26T21:47:04.809Z,5.28
2023-02-26T21:49:33.610Z,5.27
2023-02-26T21:52:11.405Z,5.27
2023-02-26T21:54:44.058Z,5.29
2023-02-26T21:57:13.065Z,5.28
2023-02-26T21:59:42.259Z,5.26
2023-02-26T22:02:12.017Z,5.22
2023-02-26T22:04:42.394Z,5.21
2023-02-26T22:07:11.799Z,5.20
2023-02-26T22:09:40.405Z,5.18
2023-02-26T22:12:08.889Z,5.17
2023-02-26T22:14:37.645Z,5.17
2023-02-26T22:17:06.561Z,5.14
2023-02-26T22:19:37.177Z,5.10
2023-02-26T22:22:05.782Z,5.09
2023-02-26T22:24:35.358Z,5.10
2023-02-26T22:27:05.477Z,5.11
2023-02-26T22:29:34.382Z,5.13
2023-02-26T22:32:03.155Z,5.15
2023-02-26T22:34:34.196Z,5.14
2023-02-26T22:37:02.786Z,5.12
2023-02-26T22:39:31.474Z,5.09
2023-02-26T22:42:20.039Z,5.06
2023-02-26T22:44:48.810Z,5.06
2023-02-26T22:47:17.818Z,5.05
2023-02-26T22:49:46.797Z,5.05
2023-02-26T22:52:17.733Z,5.06
2023-02-26T22:54:48.081Z,5.06
2023-02-26T22:57:16.947Z,5.09
2023-02-26T22:59:45.736Z,5.13
2023-02-26T23:02:14.733Z,5.10
2023-02-26T23:04:44.494Z,5.09
2023-02-26T23:07:13.227Z,5.09
2023-02-26T23:09:42.550Z,5.06
2023-02-26T23:12:11.453Z,5.05
2023-02-26T23:14:40.629Z,5.07
2023-02-26T23:17:11.498Z,5.11
2023-02-26T23:19:41.568Z,5.15
2023-02-26T23:22:10.561Z,5.15
2023-02-26T23:24:40.820Z,5.14
2023-02-26T23:27:09.572Z,5.13
2023-02-26T23:29:45.859Z,5.14
2023-02-26T23:32:15.547Z,5.13
2023-02-26T23:34:45.050Z,5.10
2023-02-26T23:37:14.244Z,5.08
2023-02-26T23:39:42.935Z,5.09
2023-02-26T23:42:12.065Z,5.09
2023-02-26T23:44:41.117Z,5.07
2023-02-26T23:47:09.803Z,5.03
2023-02-26T23:49:40.225Z,5.01
2023-02-26T23:52:09.637Z,4.99
2023-02-26T23:54:40.070Z,5.00
2023-02-26T23:57:09.399Z,5.01
2023-02-26T23:59:39.910Z,5.00
